WEATHER DATA

TODAY
Time Temp. Dewp. Hum. Wind dir Wind speed Wind gust Bar.
00:04 13.9 13.6 98 306 2.8 5.3 1004.2
00:14 13.8 13.5 98 294 3.6 6.1 1004.5
00:24 13.7 13.5 99 287 3.1 4.7 1004.6
00:35 13.6 13.4 99 293 3.6 5.3 1004.6
00:44 13.5 13.3 99 290 3.9 5.6 1004.6
00:54 13.4 13.2 99 291 3.6 5.6 1004.7
01:05 13.4 13.2 99 285 3.6 5 1004.9
01:15 13.3 13.1 99 282 2.5 3.6 1004.9
01:24 13.2 13 99 277 2.2 4.4 1005.1
01:34 13.2 13 99 281 2.8 4.2 1005.1
01:45 13 12.8 99 283 3.6 5.8 1005.2
01:55 12.9 12.7 99 291 3.9 5 1004.8
02:04 12.8 12.6 99 297 2.5 3.9 1004.7
02:15 12.7 12.5 99 288 3.3 4.7 1004.8
02:25 12.7 12.5 99 283 3.1 4.4 1004.8
02:35 12.6 12.4 99 276 2.8 3.9 1004.7
02:45 12.6 12.4 99 277 2.8 3.9 1004.9
02:55 12.6 12.4 99 278 3.1 4.4 1005
03:05 12.6 12.4 99 274 2.5 3.9 1005.2
03:15 12.5 12.3 99 281 3.3 6.1 1005.3
03:26 12.5 12.3 99 282 3.3 5.3 1005.4
03:35 12.5 12.3 99 280 3.6 5.6 1005.4
03:45 12.4 12.2 99 280 3.6 6.7 1005.1
03:55 12.4 12.2 99 283 3.9 5.8 1005.2
04:06 12.4 12.2 99 284 4.4 5.8 1005.2
04:15 12.4 12.2 99 288 4.2 5.8 1005
04:25 12.3 12.1 99 293 4.4 6.7 1004.9
04:36 12.3 12.1 99 294 4.4 6.7 1004.9
04:46 12.2 12 99 295 4.4 5.8 1004.9
04:56 12.2 12 99 291 4.2 6.7 1004.8
05:06 12.2 12.2 100 286 4.2 5.8 1004.9
05:16 12.2 12.2 100 283 3.6 6.1 1004.9
05:26 12.2 12.2 100 285 3.3 5 1005
05:36 12.2 12.2 100 284 3.6 7.2 1005.3
05:46 12.1 12.1 100 283 3.6 5.6 1005.3
05:56 12.1 12.1 100 284 3.6 6.1 1005.2
06:06 12.1 12.1 100 283 3.1 4.7 1005.5
06:16 12.1 12.1 100 280 3.1 4.7 1005.5
06:27 12.1 12.1 100 281 3.3 5.3 1005.5
06:36 12 12 100 279 2.8 5 1005.8
06:46 12 12 100 281 2.5 3.3 1005.8
06:57 12 12 100 284 2.5 3.6 1006
07:07 11.9 11.9 100 280 2.5 3.9 1005.9
07:16 11.9 11.9 100 280 2.8 4.2 1006
07:27 11.8 11.8 100 281 2.8 4.2 1005.9
07:37 11.8 11.8 100 282 2.5 3.6 1006
07:47 11.7 11.7 100 281 2.5 4.7 1006
07:56 11.7 11.7 100 282 2.8 4.7 1006
08:07 11.7 11.7 100 284 3.6 5 1005.8
08:17 11.8 11.8 100 283 3.3 4.7 1005.9
08:27 11.8 11.8 100 291 4.4 6.7 1005.8
08:37 11.8 11.8 100 290 4.2 6.1 1005.7
08:47 11.9 11.9 100 288 4.4 6.4 1005.8
08:57 11.9 11.9 100 287 3.9 5.3 1006.1
09:07 12 12 100 290 4.4 6.4 1005.9
09:18 12 12 100 296 5.3 8.1 1005.5
09:27 12 12 100 292 5 7.5 1005.5
09:37 12.1 12.1 100 289 4.2 6.1 1005.8
09:48 12.1 12.1 100 285 3.6 5.3 1005.9
09:58 12.1 12.1 100 285 3.3 5 1005.8
10:07 12.1 12.1 100 287 4.2 6.7 1005.8
10:17 12.1 12.1 100 289 5 6.9 1005.8
10:28 12.1 12.1 100 288 4.2 6.9 1005.9
10:38 12.2 12.2 100 289 5 8.3 1005.8
10:48 12.2 12.2 100 292 5 7.8 1005.8
10:58 12.2 12.2 100 295 5.3 8.6 1005.8
11:08 12.1 12.1 100 293 5.3 7.8 1005.9
11:18 12.1 12.1 100 301 4.4 6.7 1005.9
11:28 12 12 100 298 3.6 5.3 1005.9
11:38 12 12 100 297 3.9 5.3 1006
11:48 12 12 100 303 2.5 4.2 1006.1
11:58 12 12 100 298 3.3 5.6 1005.9
12:09 12.1 12.1 100 302 3.3 6.1 1005.9
12:18 12.2 12.2 100 303 2.8 4.7 1006
12:28 12.2 12.2 100 298 3.6 5.8 1006.1
12:38 12.1 12.1 100 301 3.9 6.1 1006.1
12:49 12.1 12.1 100 295 4.2 7.2 1006.1
12:59 12.1 12.1 100 295 4.2 6.4 1006.1
13:08 12.3 12.3 100 296 3.9 5.8 1006.1
13:19 12.3 12.3 100 298 4.7 7.2 1006.2
13:29 12.2 12.2 100 298 4.4 6.9 1006.2
13:39 12.2 12.2 100 299 3.1 5.3 1006.3
13:49 12.1 12.1 100 294 3.9 6.1 1006.4
13:59 12.1 12.1 100 293 4.2 6.4 1006.3
14:09 12.1 12.1 100 298 4.2 6.4 1006.1
14:19 12.1 12.1 100 297 3.6 6.1 1005.9
14:29 12.1 12.1 100 300 4.4 7.8 1005.9
14:39 12 12 100 295 3.6 6.4 1006.1
14:49 11.9 11.9 100 301 3.6 6.1 1006
14:59 11.9 11.9 100 294 3.9 6.4 1006.1
15:10 12 12 100 298 3.3 5.6 1006.1
15:19 12 12 100 299 3.9 8.1 1006.2
15:29 11.9 11.9 100 298 4.2 6.9 1006.2
15:40 11.7 11.5 99 298 4.4 6.7 1006.2
15:50 11.6 11.6 100 303 4.2 7.8 1006.2
15:59 11.6 11.6 100 298 4.7 7.8 1006.2
16:10 11.5 11.5 100 294 3.9 6.1 1006.3

DAY STATISTIC

2021-05-12
TEMPERATURE
AVERAGE
12.3
HIGH
13.9
00:04
LOW
11.5
16:10
PRESSURE
AVERAGE
1005.6
HIGH
1006.4
13:49
LOW
1004.2
00:04
DEWPOINT
AVERAGE
12.2
HIGH
13.6
00:04
LOW
11.5
15:40
HUMIDITY
AVERAGE
100
HIGH
100
05:06
LOW
98
00:04
WIND SPEED
AVERAGE
3.7
HIGH
5.3
09:18
WIND GUST
AVERAGE
5.8
HIGH
8.6
10:58
WIND DIRECTION
PREVAILING
W
58.8%
N
0.0
NE
0.0
E
0.0
SE
0.0
S
0.0
SW
0.0
W
58.8
NW
41.2
TEMPERATURE (°C)
LOW
11.5
HIGH
13.9
AVERAGE
12.3
PRESSURE (hpa)
LOW
1004.2
HIGH
1006.4
AVERAGE
1005.6
DEVICE